Time;durP1;ratioP1;P1;durP2;ratioP2;P2;SDS_P1;SDS_P2;PMS_P1;PMS_P2;Temp;Humidity;BMP_temperature;BMP_pressure;BME280_temperature;BME280_humidity;BME280_pressure;Samples;Min_cycle;Max_cycle;Signal;HPM_P1;HPM_P2
2022/12/04 00:01:20;;;;;;;;;;;;;;;19.18;43.86;101311.69;5110024;28;19931;-42
2022/12/04 00:03:46;;;;;;;;;;;;;;;19.17;43.54;101310.00;5109191;28;19973;-42
2022/12/04 00:06:13;;;;;;;;;;;;;;;19.17;43.39;101308.09;5112066;28;20014;-43
2022/12/04 00:08:38;;;;;;;;;;;;;;;19.18;43.60;101303.41;5129847;27;19970;-41
2022/12/04 00:11:04;;;;;;;;;;;;;;;19.17;43.74;101302.59;5126486;28;19934;-43
2022/12/04 00:13:30;;;;;;;;;;;;;;;19.17;43.65;101302.59;5111351;28;19971;-41
2022/12/04 00:15:55;;;;;;;;;;;;;;;19.17;43.58;101305.34;5127470;28;19938;-42
2022/12/04 00:18:21;;;;;;;;;;;;;;;19.17;43.54;101297.06;5111600;28;19975;-42
2022/12/04 00:20:47;;;;;;;;;;;;;;;19.18;43.78;101297.88;5112252;28;20603;-43
2022/12/04 00:23:12;;;;;;;;;;;;;;;19.16;43.64;101289.84;5111907;28;19962;-45
2022/12/04 00:25:38;;;;;;;;;;;;;;;19.17;43.46;101294.28;5129362;28;19931;-43
2022/12/04 00:28:06;;;;;;;;;;;;;;;19.17;43.46;101294.28;5129821;28;20060;-43
2022/12/04 00:30:32;;;;;;;;;;;;;;;19.17;43.87;101286.03;5127534;28;19927;-41
2022/12/04 00:32:57;;;;;;;;;;;;;;;19.16;43.63;101281.56;5129502;28;19931;-41
2022/12/04 00:35:24;;;;;;;;;;;;;;;19.17;43.52;101279.63;5129932;28;20283;-42
2022/12/04 00:37:49;;;;;;;;;;;;;;;19.16;43.41;101278.81;5111471;28;19967;-41
2022/12/04 00:40:15;;;;;;;;;;;;;;;19.17;43.49;101279.63;5126874;28;19927;-42
2022/12/04 00:42:40;;;;;;;;;;;;;;;19.18;43.43;101279.38;5127635;28;19953;-43
2022/12/04 00:45:06;;;;;;;;;;;;;;;19.16;43.75;101273.28;5127723;27;19932;-42
2022/12/04 00:47:31;;;;;;;;;;;;;;;19.17;43.56;101276.88;5128609;28;19931;-44
2022/12/04 00:49:57;;;;;;;;;;;;;;;19.17;43.43;101268.59;5129268;28;20713;-44
2022/12/04 00:52:23;;;;;;;;;;;;;;;19.17;43.71;101274.13;5129919;28;19923;-41
2022/12/04 00:54:48;;;;;;;;;;;;;;;19.16;43.78;101267.75;5128361;28;19923;-41
2022/12/04 00:57:15;;;;;;;;;;;;;;;19.16;43.47;101278.81;5129764;28;19934;-42
2022/12/04 00:59:40;;;;;;;;;;;;;;;19.17;43.43;101276.88;5111928;28;19962;-41
2022/12/04 01:02:06;;;;;;;;;;;;;;;19.17;43.49;101274.97;5127501;28;20371;-42
2022/12/04 01:04:31;;;;;;;;;;;;;;;19.17;43.65;101269.44;5127794;28;19923;-43
2022/12/04 01:06:57;;;;;;;;;;;;;;;19.17;43.47;101277.72;5129075;28;19931;-42
2022/12/04 01:09:30;;;;;;;;;;;;;;;19.17;43.44;101279.63;5128745;28;20335;-44
2022/12/04 01:11:56;;;;;;;;;;;;;;;19.16;43.48;101281.56;5125472;27;20029;-41
2022/12/04 01:14:21;;;;;;;;;;;;;;;19.17;43.86;101279.63;5127888;28;19930;-42
2022/12/04 01:16:47;;;;;;;;;;;;;;;19.17;43.48;101285.16;5129961;28;19969;-41
2022/12/04 01:19:12;;;;;;;;;;;;;;;19.16;43.57;101283.50;5111152;28;19939;-44
2022/12/04 01:21:38;;;;;;;;;;;;;;;19.16;43.75;101287.09;5129614;28;20390;-41
2022/12/04 01:24:04;;;;;;;;;;;;;;;19.16;43.79;101281.56;5107462;28;21037;-40
2022/12/04 01:26:30;;;;;;;;;;;;;;;19.16;43.58;101284.34;5124694;28;19933;-42
2022/12/04 01:28:55;;;;;;;;;;;;;;;19.16;43.58;101287.09;5128361;28;19923;-41
2022/12/04 01:31:21;;;;;;;;;;;;;;;19.17;43.64;101282.41;5130130;28;19930;-41
2022/12/04 01:33:47;;;;;;;;;;;;;;;19.16;43.69;101284.34;5110169;28;20299;-44
2022/12/04 01:36:13;;;;;;;;;;;;;;;19.17;43.34;101287.91;5129555;28;20015;-44
2022/12/04 01:38:39;;;;;;;;;;;;;;;19.16;43.46;101281.56;5110395;28;19923;-43
2022/12/04 01:41:05;;;;;;;;;;;;;;;19.16;43.47;101284.34;5130360;28;20375;-41
2022/12/04 01:43:31;;;;;;;;;;;;;;;19.17;43.38;101268.59;5124229;28;19974;-42
2022/12/04 01:45:58;;;;;;;;;;;;;;;19.17;43.60;101274.13;5128646;27;19980;-43
2022/12/04 01:48:40;;;;;;;;;;;;;;;19.17;43.64;101283.25;5109722;28;19970;-42
2022/12/04 01:51:07;;;;;;;;;;;;;;;19.16;43.82;101281.56;5126379;28;19999;-43
2022/12/04 01:53:33;;;;;;;;;;;;;;;19.17;43.77;101276.88;5127256;28;19963;-42
2022/12/04 01:55:59;;;;;;;;;;;;;;;19.15;43.47;101263.34;5126987;28;20355;-41
2022/12/04 01:58:26;;;;;;;;;;;;;;;19.16;43.41;101267.75;5129365;28;20363;-42
2022/12/04 02:00:53;;;;;;;;;;;;;;;19.16;43.66;101270.53;5128825;28;19962;-43
2022/12/04 02:03:23;;;;;;;;;;;;;;;19.16;43.50;101259.50;5128178;27;19924;-43
2022/12/04 02:05:49;;;;;;;;;;;;;;;19.16;43.72;101265.00;5127281;28;19931;-42
2022/12/04 02:08:14;;;;;;;;;;;;;;;19.16;43.39;101259.50;5128179;28;19943;-41
2022/12/04 02:11:00;;;;;;;;;;;;;;;19.16;43.47;101247.63;5126839;28;20428;-42
2022/12/04 02:13:30;;;;;;;;;;;;;;;19.18;43.57;101256.47;5113058;28;20014;-42
2022/12/04 02:16:00;;;;;;;;;;;;;;;19.16;43.69;101256.72;5109615;28;19931;-41
2022/12/04 02:18:45;;;;;;;;;;;;;;;19.16;43.71;101264.19;5125374;28;20329;-42
2022/12/04 02:21:15;;;;;;;;;;;;;;;19.16;43.69;101266.94;5113482;28;20387;-42
2022/12/04 02:26:39;;;;;;;;;;;;;;;19.16;43.46;101267.75;5181502;27;19925;-43
2022/12/04 02:29:09;;;;;;;;;;;;;;;19.16;43.69;101259.50;5145017;27;19954;-41
2022/12/04 02:31:40;;;;;;;;;;;;;;;19.16;43.78;101264.19;5155693;27;20351;-42
2022/12/04 02:34:08;;;;;;;;;;;;;;;19.17;43.72;101257.56;5157806;27;20030;-42
2022/12/04 02:36:35;;;;;;;;;;;;;;;19.16;43.45;101265.00;5160569;27;19927;-42
2022/12/04 02:39:04;;;;;;;;;;;;;;;19.16;43.43;101258.66;5141425;27;20221;-42
2022/12/04 02:41:30;;;;;;;;;;;;;;;19.16;43.40;101256.72;5164719;27;20402;-41
2022/12/04 02:43:57;;;;;;;;;;;;;;;19.15;43.44;101260.59;5164424;27;19970;-41
2022/12/04 02:46:25;;;;;;;;;;;;;;;19.15;43.54;101263.34;5145383;27;20006;-42
2022/12/04 02:48:51;;;;;;;;;;;;;;;19.16;43.66;101265.00;5163779;27;19923;-42
2022/12/04 02:51:17;;;;;;;;;;;;;;;19.16;43.65;101267.75;5162932;27;19973;-43
2022/12/04 02:53:44;;;;;;;;;;;;;;;19.16;43.41;101264.19;5144374;27;19981;-44
2022/12/04 02:56:11;;;;;;;;;;;;;;;19.16;43.33;101261.41;5166950;27;20367;-42
2022/12/04 02:58:38;;;;;;;;;;;;;;;19.16;43.39;101262.25;5163741;27;20371;-41
2022/12/04 03:01:18;;;;;;;;;;;;;;;19.15;43.42;101257.84;5145895;27;20018;-42
2022/12/04 03:03:46;;;;;;;;;;;;;;;19.16;43.69;101264.19;5142080;27;20014;-41
2022/12/04 03:06:12;;;;;;;;;;;;;;;19.15;43.51;101257.00;5144425;27;20014;-43
2022/12/04 03:08:38;;;;;;;;;;;;;;;19.15;43.49;101257.84;5125988;27;19950;-43
2022/12/04 03:11:04;;;;;;;;;;;;;;;19.15;43.65;101263.34;5125525;27;19955;-44
2022/12/04 03:13:37;;;;;;;;;;;;;;;19.16;43.35;101265.00;5139439;27;19931;-41
2022/12/04 03:16:07;;;;;;;;;;;;;;;19.16;43.49;101272.47;5142960;27;19963;-42
2022/12/04 03:18:35;;;;;;;;;;;;;;;19.14;43.80;101270.00;5126255;27;20363;-43
2022/12/04 03:21:04;;;;;;;;;;;;;;;19.15;43.32;101271.63;5117641;27;19966;-41
2022/12/04 03:23:31;;;;;;;;;;;;;;;19.15;43.33;101263.34;5122719;27;20405;-41
2022/12/04 03:26:16;;;;;;;;;;;;;;;19.15;43.47;101263.34;5143254;27;19951;-43
2022/12/04 03:28:45;;;;;;;;;;;;;;;19.16;43.40;101269.69;5127045;27;19955;-46
2022/12/04 03:31:11;;;;;;;;;;;;;;;19.15;43.39;101263.34;5123900;27;19962;-43
2022/12/04 03:33:38;;;;;;;;;;;;;;;19.15;43.61;101263.34;5119618;27;20439;-42
2022/12/04 03:36:23;;;;;;;;;;;;;;;19.15;43.39;101260.59;5120920;27;19994;-43
2022/12/04 03:38:52;;;;;;;;;;;;;;;19.15;43.54;101268.88;5110091;28;20327;-41
2022/12/04 03:41:27;;;;;;;;;;;;;;;19.16;43.43;101269.69;5128187;28;19931;-41
2022/12/04 03:44:13;;;;;;;;;;;;;;;19.15;43.55;101274.41;5123594;28;19988;-44
2022/12/04 03:46:39;;;;;;;;;;;;;;;19.14;43.56;101261.69;5110992;28;20001;-41
2022/12/04 03:49:13;;;;;;;;;;;;;;;19.15;43.67;101266.13;5131585;28;19927;-41
2022/12/04 03:54:28;;;;;;;;;;;;;;;19.15;43.30;101259.78;5178553;27;19929;-41
2022/12/04 03:56:55;;;;;;;;;;;;;;;19.15;43.33;101259.78;5158056;27;20268;-41
2022/12/04 03:59:29;;;;;;;;;;;;;;;19.15;43.30;101262.53;5136222;27;19992;-41
2022/12/04 04:01:55;;;;;;;;;;;;;;;19.15;43.51;101265.28;5134267;27;20379;-44
2022/12/04 04:04:22;;;;;;;;;;;;;;;19.14;43.59;101260.88;5136916;27;20367;-41
2022/12/04 04:06:56;;;;;;;;;;;;;;;19.14;43.57;101260.88;5128169;27;19954;-41
2022/12/04 04:09:23;;;;;;;;;;;;;;;19.14;43.74;101261.69;5130064;27;19970;-43
2022/12/04 04:11:52;;;;;;;;;;;;;;;19.14;43.72;101261.69;5138829;27;20018;-41
2022/12/04 04:25:24;;;;;;;;;;;;;;;19.15;43.46;101268.06;5142347;27;19969;-42
2022/12/04 04:27:52;;;;;;;;;;;;;;;19.14;43.36;101261.69;5151977;27;19963;-41
2022/12/04 04:30:17;;;;;;;;;;;;;;;19.15;43.74;101266.13;5120680;27;20013;-43
2022/12/04 04:32:45;;;;;;;;;;;;;;;19.15;43.40;101262.53;5127715;27;19924;-41
2022/12/04 04:35:30;;;;;;;;;;;;;;;19.14;43.40;101258.13;5120565;27;19931;-41
2022/12/04 04:38:06;;;;;;;;;;;;;;;19.14;43.40;101261.69;5130973;27;20392;-44
2022/12/04 04:40:34;;;;;;;;;;;;;;;19.14;43.55;101258.94;5146450;27;19933;-42
2022/12/04 04:43:02;;;;;;;;;;;;;;;19.14;43.39;101258.94;5128223;27;20417;-42
2022/12/04 04:45:36;;;;;;;;;;;;;;;19.14;43.33;101258.13;5147213;27;20007;-44
2022/12/04 04:48:05;;;;;;;;;;;;;;;19.15;43.48;101259.78;5143607;27;20338;-44
2022/12/04 04:50:31;;;;;;;;;;;;;;;19.15;43.46;101268.06;5119276;27;20393;-43
2022/12/04 04:52:58;;;;;;;;;;;;;;;19.15;43.33;101259.78;5129121;27;19931;-42
2022/12/04 04:55:24;;;;;;;;;;;;;;;19.15;43.40;101257.84;5120028;27;20019;-43
2022/12/04 04:57:49;;;;;;;;;;;;;;;19.15;43.31;101257.00;5142165;27;19931;-41
2022/12/04 05:00:16;;;;;;;;;;;;;;;19.14;43.29;101258.94;5137609;27;19935;-43
2022/12/04 05:02:42;;;;;;;;;;;;;;;19.14;43.37;101250.66;5128936;27;20353;-43
2022/12/04 05:05:08;;;;;;;;;;;;;;;19.14;43.34;101245.13;5114764;27;20407;-42
2022/12/04 05:07:33;;;;;;;;;;;;;;;19.14;43.47;101250.66;5102595;27;20273;-42
2022/12/04 05:09:59;;;;;;;;;;;;;;;19.14;43.31;101250.66;5123720;27;19931;-43
2022/12/04 05:12:25;;;;;;;;;;;;;;;19.14;43.41;101245.13;5128038;27;19927;-41
2022/12/04 05:14:50;;;;;;;;;;;;;;;19.14;43.37;101247.91;5140151;27;19931;-42
2022/12/04 05:17:16;;;;;;;;;;;;;;;19.13;43.31;101249.00;5131973;27;20363;-42
2022/12/04 05:19:56;;;;;;;;;;;;;;;19.14;43.49;101245.13;5131200;27;19927;-41
2022/12/04 05:22:26;;;;;;;;;;;;;;;19.14;43.34;101241.56;5119508;28;19927;-43
2022/12/04 05:24:51;;;;;;;;;;;;;;;19.15;43.56;101254.25;5128595;27;20430;-42
2022/12/04 05:27:17;;;;;;;;;;;;;;;19.15;43.58;101251.50;5107038;27;19928;-43
2022/12/04 05:29:42;;;;;;;;;;;;;;;19.15;43.53;101246.78;5129151;27;19923;-43
2022/12/04 05:32:08;;;;;;;;;;;;;;;19.14;43.22;101247.91;5129469;27;19969;-42
2022/12/04 05:34:34;;;;;;;;;;;;;;;19.14;43.28;101244.31;5107228;28;19931;-42
2022/12/04 05:36:59;;;;;;;;;;;;;;;19.14;43.34;101244.31;5128265;27;20294;-42
2022/12/04 05:39:25;;;;;;;;;;;;;;;19.14;43.33;101236.03;5123637;27;19931;-43
2022/12/04 05:41:50;;;;;;;;;;;;;;;19.14;43.33;101244.31;5122169;27;19924;-41
2022/12/04 05:44:16;;;;;;;;;;;;;;;19.14;43.17;101242.38;5127953;27;20120;-41
2022/12/04 05:46:41;;;;;;;;;;;;;;;19.14;43.32;101247.91;5126945;27;19931;-42
2022/12/04 05:49:07;;;;;;;;;;;;;;;19.14;43.34;101247.06;5126521;27;20367;-42
2022/12/04 05:51:33;;;;;;;;;;;;;;;19.15;43.29;101243.22;5128544;27;19923;-41
2022/12/04 05:53:58;;;;;;;;;;;;;;;19.14;43.54;101242.38;5124237;27;19931;-42
2022/12/04 05:56:24;;;;;;;;;;;;;;;19.13;43.35;101235.22;5114512;28;20385;-41
2022/12/04 05:58:49;;;;;;;;;;;;;;;19.13;43.41;101243.50;5123203;27;19938;-43
2022/12/04 06:01:16;;;;;;;;;;;;;;;19.14;43.24;101236.03;5124263;27;19923;-41
2022/12/04 06:03:42;;;;;;;;;;;;;;;19.13;43.60;101243.50;5112654;27;19970;-41
2022/12/04 06:06:16;;;;;;;;;;;;;;;19.14;43.54;101247.06;5125628;27;19924;-42
2022/12/04 06:08:47;;;;;;;;;;;;;;;19.14;43.33;101247.91;5105634;27;20367;-43
2022/12/04 06:11:14;;;;;;;;;;;;;;;19.14;43.42;101241.56;5134084;27;19945;-41
2022/12/04 06:13:41;;;;;;;;;;;;;;;19.12;43.51;101247.31;5132801;27;20004;-42
2022/12/04 06:16:11;;;;;;;;;;;;;;;19.14;43.66;101249.84;5116074;27;19970;-41
2022/12/04 06:18:37;;;;;;;;;;;;;;;19.14;43.56;101247.06;5128673;27;20322;-41
2022/12/04 06:21:02;;;;;;;;;;;;;;;19.14;43.54;101252.59;5122089;27;19923;-42
2022/12/04 06:23:28;;;;;;;;;;;;;;;19.14;43.31;101249.84;5127619;27;19923;-41
2022/12/04 06:25:54;;;;;;;;;;;;;;;19.13;43.33;101254.53;5129083;27;19931;-43
2022/12/04 06:28:21;;;;;;;;;;;;;;;19.14;43.58;101253.41;5123122;27;21409;-44
2022/12/04 06:30:47;;;;;;;;;;;;;;;19.13;43.49;101254.53;5125466;27;20364;-41
2022/12/04 06:33:12;;;;;;;;;;;;;;;19.13;43.42;101251.78;5130859;27;19954;-42
2022/12/04 06:35:38;;;;;;;;;;;;;;;19.15;43.57;101259.78;5121276;27;20367;-42
2022/12/04 06:38:03;;;;;;;;;;;;;;;19.14;43.40;101258.13;5121883;27;19931;-42
2022/12/04 06:40:29;;;;;;;;;;;;;;;19.13;43.22;101265.56;5126319;27;19923;-43
2022/12/04 06:42:55;;;;;;;;;;;;;;;19.12;43.38;101266.66;5130380;27;19923;-42
2022/12/04 06:45:21;;;;;;;;;;;;;;;19.13;43.25;101265.56;5118531;27;19923;-43
2022/12/04 06:47:46;;;;;;;;;;;;;;;19.12;43.26;101263.91;5130366;27;19974;-42
2022/12/04 06:50:12;;;;;;;;;;;;;;;19.14;43.28;101271.94;5119203;27;19931;-42
2022/12/04 06:52:37;;;;;;;;;;;;;;;19.12;43.59;101263.91;5126574;27;20264;-44
2022/12/04 06:55:03;;;;;;;;;;;;;;;19.13;43.66;101267.47;5122908;27;20248;-42
2022/12/04 06:57:29;;;;;;;;;;;;;;;19.13;43.59;101282.13;5123963;27;19949;-42
2022/12/04 06:59:54;;;;;;;;;;;;;;;19.12;43.24;101274.94;5126405;27;19982;-41
2022/12/04 07:02:20;;;;;;;;;;;;;;;19.13;43.56;101275.75;5125668;27;20380;-42
2022/12/04 07:04:46;;;;;;;;;;;;;;;19.12;43.33;101280.44;5131788;27;19930;-41
2022/12/04 07:07:12;;;;;;;;;;;;;;;19.13;43.23;101275.75;5127343;27;19927;-41
2022/12/04 07:09:37;;;;;;;;;;;;;;;19.12;43.81;101269.41;5118772;27;19927;-41
2022/12/04 07:12:03;;;;;;;;;;;;;;;19.13;43.23;101271.09;5122606;27;19938;-41
2022/12/04 07:14:29;;;;;;;;;;;;;;;19.12;43.49;101269.41;5128168;27;20428;-41
2022/12/04 07:16:54;;;;;;;;;;;;;;;19.13;43.41;101270.25;5124166;27;19942;-42
2022/12/04 07:19:20;;;;;;;;;;;;;;;19.12;43.38;101272.19;5128922;27;20437;-41
2022/12/04 07:21:45;;;;;;;;;;;;;;;19.12;43.25;101274.09;5125841;27;19930;-42
2022/12/04 07:24:13;;;;;;;;;;;;;;;19.13;43.21;101268.34;5128743;27;19931;-42
2022/12/04 07:26:38;;;;;;;;;;;;;;;19.13;43.57;101276.63;5125807;27;20227;-41
2022/12/04 07:29:04;;;;;;;;;;;;;;;19.13;43.41;101267.47;5124926;27;19972;-43
2022/12/04 07:31:29;;;;;;;;;;;;;;;19.13;43.33;101278.53;5126400;27;19931;-43
2022/12/04 07:33:56;;;;;;;;;;;;;;;19.13;43.18;101281.28;5136315;27;19931;-43
2022/12/04 07:36:22;;;;;;;;;;;;;;;19.13;43.46;101284.03;5126163;27;19931;-43
2022/12/04 07:38:47;;;;;;;;;;;;;;;19.13;43.22;101290.41;5125495;27;19923;-41
2022/12/04 07:41:13;;;;;;;;;;;;;;;19.13;43.40;101289.56;5108398;27;19931;-41
2022/12/04 07:43:39;;;;;;;;;;;;;;;19.13;43.60;101293.19;5109201;27;19930;-43
2022/12/04 07:46:05;;;;;;;;;;;;;;;19.13;43.35;101295.09;5098756;28;20004;-42
2022/12/04 07:48:31;;;;;;;;;;;;;;;19.12;43.47;101299.78;5106520;28;20426;-41
2022/12/04 07:51:02;;;;;;;;;;;;;;;19.14;43.57;101302.28;5124910;27;20061;-43
2022/12/04 07:53:28;;;;;;;;;;;;;;;19.13;43.38;101300.59;5108310;28;19963;-41
2022/12/04 07:55:53;;;;;;;;;;;;;;;19.13;43.33;101300.59;5122168;27;20393;-43
2022/12/04 07:58:19;;;;;;;;;;;;;;;19.13;43.34;101297.84;5131937;27;19927;-41
2022/12/04 08:00:44;;;;;;;;;;;;;;;19.14;43.25;101291.25;5124744;27;19934;-43
2022/12/04 08:03:10;;;;;;;;;;;;;;;19.12;43.55;101294.25;5128201;27;19931;-44
2022/12/04 08:05:36;;;;;;;;;;;;;;;19.12;43.42;101299.78;5118437;27;19930;-42
2022/12/04 08:08:01;;;;;;;;;;;;;;;19.11;43.42;101300.88;5129245;27;19928;-42
2022/12/04 08:10:27;;;;;;;;;;;;;;;19.12;43.24;101294.25;5125661;27;19938;-42
2022/12/04 08:12:52;;;;;;;;;;;;;;;19.12;43.39;101294.25;5127510;27;19923;-42
2022/12/04 08:15:18;;;;;;;;;;;;;;;19.12;43.46;101296.19;5125147;27;19977;-44
2022/12/04 08:17:43;;;;;;;;;;;;;;;19.13;43.41;101297.84;5132787;27;19939;-42
2022/12/04 08:20:09;;;;;;;;;;;;;;;19.12;43.50;101299.78;5137637;27;19923;-41
2022/12/04 08:22:35;;;;;;;;;;;;;;;19.13;43.46;101298.72;5131857;27;19923;-43
2022/12/04 08:25:00;;;;;;;;;;;;;;;19.12;43.21;101299.78;5125076;27;19931;-41
2022/12/04 08:27:26;;;;;;;;;;;;;;;19.12;43.21;101293.44;5109827;28;20342;-41
2022/12/04 08:29:51;;;;;;;;;;;;;;;19.12;43.46;101294.25;5136501;27;19934;-41
2022/12/04 08:32:17;;;;;;;;;;;;;;;19.12;43.46;101285.16;5126867;27;19927;-42
2022/12/04 08:34:43;;;;;;;;;;;;;;;19.12;43.24;101291.50;5129289;27;19924;-41
2022/12/04 08:37:08;;;;;;;;;;;;;;;19.12;43.38;101297.03;5128235;27;19933;-43
2022/12/04 08:39:34;;;;;;;;;;;;;;;19.13;43.30;101303.38;5135686;27;19927;-41
2022/12/04 08:41:59;;;;;;;;;;;;;;;19.12;43.21;101297.03;5129468;27;20335;-41
2022/12/04 08:44:25;;;;;;;;;;;;;;;19.12;43.21;101301.72;5128091;27;20394;-42
2022/12/04 08:46:50;;;;;;;;;;;;;;;19.11;43.24;101300.88;5129522;27;19928;-42
2022/12/04 08:49:16;;;;;;;;;;;;;;;19.12;43.18;101302.53;5126482;27;19923;-43
2022/12/04 08:51:42;;;;;;;;;;;;;;;19.11;43.29;101300.88;5125738;27;19927;-41
2022/12/04 08:54:07;;;;;;;;;;;;;;;19.12;43.65;101302.53;5134854;27;19930;-41
2022/12/04 08:56:33;;;;;;;;;;;;;;;19.12;43.49;101293.44;5123810;27;19956;-42
2022/12/04 08:58:59;;;;;;;;;;;;;;;19.11;43.15;101298.13;5124922;27;19962;-41
2022/12/04 09:01:25;;;;;;;;;;;;;;;19.12;43.30;101298.97;5109305;28;19923;-41
2022/12/04 09:03:51;;;;;;;;;;;;;;;19.12;43.49;101301.72;5118373;27;19923;-41
2022/12/04 09:06:17;;;;;;;;;;;;;;;19.11;43.17;101295.38;5128481;27;19923;-41
2022/12/04 09:08:42;;;;;;;;;;;;;;;19.12;43.26;101293.44;5127469;27;19934;-42
2022/12/04 09:11:10;;;;;;;;;;;;;;;19.12;43.49;101296.19;5133857;27;19931;-41
2022/12/04 09:13:36;;;;;;;;;;;;;;;19.12;43.17;101299.78;5132830;27;20213;-41
2022/12/04 09:16:02;;;;;;;;;;;;;;;19.11;43.40;101306.41;5110622;27;19923;-41
2022/12/04 09:18:28;;;;;;;;;;;;;;;19.11;43.38;101298.13;5113523;27;19972;-41
2022/12/04 09:20:55;;;;;;;;;;;;;;;19.12;43.53;101293.44;5123637;27;20271;-42
2022/12/04 09:23:21;;;;;;;;;;;;;;;19.11;43.24;101292.59;5116567;27;20393;-43
2022/12/04 09:25:46;;;;;;;;;;;;;;;19.11;43.31;101291.78;5135331;27;20372;-41
2022/12/04 09:28:12;;;;;;;;;;;;;;;19.12;43.26;101293.44;5131327;27;19930;-41
2022/12/04 09:30:37;;;;;;;;;;;;;;;19.11;43.17;101295.38;5126356;27;19968;-44
2022/12/04 09:33:03;;;;;;;;;;;;;;;19.12;43.23;101296.19;5124337;27;19931;-40
2022/12/04 09:35:29;;;;;;;;;;;;;;;19.12;43.58;101296.19;5126726;27;20378;-40
2022/12/04 09:37:54;;;;;;;;;;;;;;;19.12;43.53;101307.22;5131831;27;19923;-44
2022/12/04 09:40:28;;;;;;;;;;;;;;;19.12;43.14;101298.97;5122614;27;19931;-43
2022/12/04 09:43:10;;;;;;;;;;;;;;;19.12;43.13;101307.22;5117048;27;19928;-41
2022/12/04 09:45:40;;;;;;;;;;;;;;;19.12;43.32;101310.81;5109224;28;20366;-42
2022/12/04 09:48:07;;;;;;;;;;;;;;;19.11;43.50;101314.69;5126265;27;19980;-42
2022/12/04 09:50:36;;;;;;;;;;;;;;;19.11;43.28;101313.88;5100506;27;20019;-42
2022/12/04 09:53:02;;;;;;;;;;;;;;;19.12;43.17;101315.53;5102184;27;19981;-42
2022/12/04 09:55:32;;;;;;;;;;;;;;;19.11;43.36;101317.44;5107127;28;19967;-41
2022/12/04 09:57:58;;;;;;;;;;;;;;;19.11;43.38;101317.44;5110311;27;19954;-43
2022/12/04 10:00:27;;;;;;;;;;;;;;;19.10;43.22;101313.03;5124702;27;19928;-40
2022/12/04 10:02:55;;;;;;;;;;;;;;;19.11;43.43;101311.09;5111586;27;20313;-42
2022/12/04 10:05:30;;;;;;;;;;;;;;;19.11;43.16;101314.69;5107046;28;19924;-43
2022/12/04 10:08:15;;;;;;;;;;;;;;;19.12;43.26;101310.00;5122880;27;19927;-44
2022/12/04 10:10:41;;;;;;;;;;;;;;;19.10;43.34;101313.03;5103875;27;19935;-43
2022/12/04 10:13:17;;;;;;;;;;;;;;;19.11;43.33;101300.06;5137194;27;19976;-42
2022/12/04 10:15:48;;;;;;;;;;;;;;;19.11;43.24;101295.38;5128318;27;19974;-41
2022/12/04 10:18:20;;;;;;;;;;;;;;;19.11;43.52;101300.06;5102332;27;19923;-41
2022/12/04 10:20:47;;;;;;;;;;;;;;;19.11;43.46;101298.13;5129847;27;20370;-42
2022/12/04 10:23:18;;;;;;;;;;;;;;;19.11;43.57;101300.88;5120320;27;19958;-42
2022/12/04 10:25:43;;;;;;;;;;;;;;;19.10;43.34;101302.00;5127947;27;19955;-42
2022/12/04 10:28:15;;;;;;;;;;;;;;;19.11;43.32;101305.59;5132474;27;19930;-41
2022/12/04 10:30:41;;;;;;;;;;;;;;;19.10;43.36;101303.94;5114700;27;19927;-43
2022/12/04 10:33:12;;;;;;;;;;;;;;;19.11;43.38;101300.06;5126703;27;19923;-41
2022/12/04 10:35:38;;;;;;;;;;;;;;;19.11;43.21;101291.78;5109331;28;19955;-43
2022/12/04 10:38:06;;;;;;;;;;;;;;;19.11;43.16;101295.38;5126078;27;20308;-45
2022/12/04 10:40:42;;;;;;;;;;;;;;;19.10;43.42;101290.97;5113113;28;20605;-43
2022/12/04 10:43:28;;;;;;;;;;;;;;;19.11;43.45;101280.75;5131207;27;19973;-45
2022/12/04 10:45:53;;;;;;;;;;;;;;;19.11;43.16;101280.75;5115487;27;19955;-42
2022/12/04 10:48:23;;;;;;;;;;;;;;;19.11;43.45;101283.50;5127415;27;19938;-41
2022/12/04 10:50:48;;;;;;;;;;;;;;;19.10;43.63;101277.16;5129963;27;19957;-42
2022/12/04 10:53:14;;;;;;;;;;;;;;;19.11;43.34;101281.56;5125621;27;19932;-44
2022/12/04 10:55:39;;;;;;;;;;;;;;;19.10;43.18;101277.16;5125553;27;20280;-41
2022/12/04 10:58:20;;;;;;;;;;;;;;;19.11;43.19;101278.81;5121804;27;19931;-42
2022/12/04 11:00:57;;;;;;;;;;;;;;;19.12;43.51;101274.09;5122005;28;20022;-40
2022/12/04 11:03:24;;;;;;;;;;;;;;;19.11;43.35;101275.22;5126442;27;19978;-41
2022/12/04 11:05:54;;;;;;;;;;;;;;;19.11;43.41;101269.69;5130449;27;19939;-42
2022/12/04 11:08:23;;;;;;;;;;;;;;;19.11;43.25;101266.94;5108096;27;20015;-40
2022/12/04 11:10:58;;;;;;;;;;;;;;;19.11;43.32;101258.66;5110303;28;19970;-42
2022/12/04 11:13:24;;;;;;;;;;;;;;;19.11;43.49;101261.41;5126461;27;19974;-42
2022/12/04 11:15:50;;;;;;;;;;;;;;;19.11;43.54;101253.13;5130856;27;19938;-42
2022/12/04 11:18:21;;;;;;;;;;;;;;;19.10;43.49;101252.31;5102736;27;19938;-44
2022/12/04 11:21:07;;;;;;;;;;;;;;;19.11;43.15;101253.13;5124016;27;19950;-40
2022/12/04 11:23:33;;;;;;;;;;;;;;;19.10;43.41;101243.19;5119179;27;20374;-41
2022/12/04 11:25:59;;;;;;;;;;;;;;;19.10;43.25;101240.44;5108358;28;19951;-43
2022/12/04 11:28:30;;;;;;;;;;;;;;;19.10;43.16;101243.19;5130670;27;19935;-42
2022/12/04 11:31:07;;;;;;;;;;;;;;;19.10;43.17;101238.50;5126247;27;19946;-40
2022/12/04 11:33:35;;;;;;;;;;;;;;;19.10;43.32;101229.41;5123789;27;20441;-44
2022/12/04 11:36:02;;;;;;;;;;;;;;;19.10;43.46;101229.41;5123095;27;19955;-42
2022/12/04 11:38:28;;;;;;;;;;;;;;;19.10;43.50;101238.50;5124405;27;19967;-41
2022/12/04 11:40:54;;;;;;;;;;;;;;;19.11;43.26;101240.16;5127841;27;19955;-42
2022/12/04 11:43:20;;;;;;;;;;;;;;;19.11;43.36;101240.16;5113688;27;20367;-41
2022/12/04 11:45:55;;;;;;;;;;;;;;;19.10;43.13;101238.50;5121633;27;19932;-42
2022/12/04 11:48:21;;;;;;;;;;;;;;;19.10;43.45;101227.47;5126160;27;19982;-41
2022/12/04 11:50:50;;;;;;;;;;;;;;;19.09;43.46;101236.03;5121972;27;20371;-43
2022/12/04 11:53:23;;;;;;;;;;;;;;;19.10;43.19;101224.69;5129920;27;19988;-43
2022/12/04 11:56:09;;;;;;;;;;;;;;;19.10;43.33;101221.94;5123914;27;20006;-43
2022/12/04 11:58:54;;;;;;;;;;;;;;;19.10;43.48;101229.41;5106943;27;20450;-44
2022/12/04 12:01:25;;;;;;;;;;;;;;;19.10;43.40;101218.34;5114334;27;20010;-43
2022/12/04 12:04:11;;;;;;;;;;;;;;;19.10;43.44;101219.19;5130181;27;20012;-41
2022/12/04 12:06:38;;;;;;;;;;;;;;;19.09;43.30;101222.22;5108995;27;19971;-41
2022/12/04 12:09:08;;;;;;;;;;;;;;;19.09;43.18;101220.28;5127670;27;19974;-41
2022/12/04 12:11:36;;;;;;;;;;;;;;;19.09;43.35;101217.53;5127800;27;19962;-41
2022/12/04 12:14:07;;;;;;;;;;;;;;;19.10;43.25;101219.19;5123701;27;19981;-42
2022/12/04 12:16:40;;;;;;;;;;;;;;;19.09;43.43;101213.94;5125278;27;19931;-42
2022/12/04 12:19:26;;;;;;;;;;;;;;;19.09;43.45;101217.53;5114604;27;20378;-40
2022/12/04 12:21:53;;;;;;;;;;;;;;;19.09;43.23;101217.53;5111565;27;19963;-41
2022/12/04 12:24:22;;;;;;;;;;;;;;;19.10;43.27;101215.59;5118232;27;19935;-42
2022/12/04 12:27:08;;;;;;;;;;;;;;;19.10;43.19;101226.63;5105028;27;19965;-43
2022/12/04 12:29:37;;;;;;;;;;;;;;;19.09;43.16;101225.81;5115887;27;20367;-42
2022/12/04 12:32:08;;;;;;;;;;;;;;;19.09;43.26;101225.81;5133707;27;20443;-42
2022/12/04 12:37:26;;;;;;;;;;;;;;;19.10;43.14;101226.63;5164326;27;19949;-46
2022/12/04 12:40:12;;;;;;;;;;;;;;;19.10;43.50;101223.88;5147173;27;19923;-43
2022/12/04 12:42:39;;;;;;;;;;;;;;;19.10;43.48;101229.41;5149717;27;20003;-41
2022/12/04 12:45:15;;;;;;;;;;;;;;;19.10;43.35;101218.34;5145788;27;20328;-45
2022/12/04 12:47:41;;;;;;;;;;;;;;;19.09;43.23;101217.53;5165836;27;20355;-43
2022/12/04 12:50:12;;;;;;;;;;;;;;;19.09;43.25;101225.81;5148384;27;19930;-40
2022/12/04 12:52:42;;;;;;;;;;;;;;;19.10;43.05;101218.34;5167230;27;19923;-45
2022/12/04 12:55:13;;;;;;;;;;;;;;;19.10;43.39;101224.69;5165991;27;19974;-41
2022/12/04 12:57:40;;;;;;;;;;;;;;;19.09;43.44;101225.81;5167046;27;19923;-41
2022/12/04 13:00:12;;;;;;;;;;;;;;;19.10;43.44;101223.88;5148301;27;19989;-41